Terminal Aerodrome Forecast
Issued by NWS

Home | Current Version | Previous Version | Text Only | Print | Product List | Glossary On
Versions: 1 2 3 4 5 6 7 8 9 10 11 12 13 14 15 16 17
000
FTUS42 KJAX 190500
TAFVQQ
TAF
KVQQ 190524Z 1906/2006 00000KT P6SM SCT150 BKN250
     FM190800 00000KT 5SM BR SCT040 BKN200
     FM191300 04003KT P6SM SCT040 BKN200=

USA.gov is the U.S. government's official web portal to all federal, state and local government web resources and services.